sensor_id;sensor_type;location;lat;lon;timestamp;P1;durP1;ratioP1;P2;durP2;ratioP2
80119;SDS011;69425;55.040;82.918;2023-05-23T00:00:02;6.13;;;2.35;;
80119;SDS011;69425;55.040;82.918;2023-05-23T00:05:07;6.10;;;1.90;;
80119;SDS011;69425;55.040;82.918;2023-05-23T00:10:09;3.20;;;1.85;;
80119;SDS011;69425;55.040;82.918;2023-05-23T00:15:12;7.35;;;2.53;;
80119;SDS011;69425;55.040;82.918;2023-05-23T00:20:13;3.30;;;1.98;;
80119;SDS011;69425;55.040;82.918;2023-05-23T00:25:14;3.53;;;2.15;;
80119;SDS011;69425;55.040;82.918;2023-05-23T00:30:17;2.88;;;1.55;;
80119;SDS011;69425;55.040;82.918;2023-05-23T00:35:18;2.53;;;1.70;;
80119;SDS011;69425;55.040;82.918;2023-05-23T00:40:20;4.05;;;1.90;;
80119;SDS011;69425;55.040;82.918;2023-05-23T00:45:23;5.93;;;2.30;;
80119;SDS011;69425;55.040;82.918;2023-05-23T00:50:24;3.85;;;2.00;;
80119;SDS011;69425;55.040;82.918;2023-05-23T00:55:25;3.67;;;1.67;;
80119;SDS011;69425;55.040;82.918;2023-05-23T01:00:28;8.68;;;2.08;;
80119;SDS011;69425;55.040;82.918;2023-05-23T01:05:30;4.88;;;2.20;;
80119;SDS011;69425;55.040;82.918;2023-05-23T01:10:31;7.47;;;2.63;;
80119;SDS011;69425;55.040;82.918;2023-05-23T01:15:35;12.73;;;3.85;;
80119;SDS011;69425;55.040;82.918;2023-05-23T01:20:40;7.90;;;2.67;;
80119;SDS011;69425;55.040;82.918;2023-05-23T01:25:46;10.70;;;3.78;;
80119;SDS011;69425;55.040;82.918;2023-05-23T01:30:56;13.63;;;3.47;;
80119;SDS011;69425;55.040;82.918;2023-05-23T01:35:58;6.47;;;3.33;;
80119;SDS011;69425;55.040;82.918;2023-05-23T01:41:01;7.07;;;2.78;;
80119;SDS011;69425;55.040;82.918;2023-05-23T01:46:04;6.78;;;3.17;;
80119;SDS011;69425;55.040;82.918;2023-05-23T01:51:06;5.57;;;2.60;;
80119;SDS011;69425;55.040;82.918;2023-05-23T01:56:07;5.13;;;2.45;;
80119;SDS011;69425;55.040;82.918;2023-05-23T02:01:10;4.75;;;2.40;;
80119;SDS011;69425;55.040;82.918;2023-05-23T02:06:11;6.07;;;1.98;;
80119;SDS011;69425;55.040;82.918;2023-05-23T02:11:12;3.63;;;2.63;;
80119;SDS011;69425;55.040;82.918;2023-05-23T02:16:15;4.13;;;2.47;;
80119;SDS011;69425;55.040;82.918;2023-05-23T02:21:16;7.28;;;2.95;;
80119;SDS011;69425;55.040;82.918;2023-05-23T02:26:17;3.83;;;2.78;;
80119;SDS011;69425;55.040;82.918;2023-05-23T02:31:20;7.80;;;2.55;;
80119;SDS011;69425;55.040;82.918;2023-05-23T02:36:21;3.88;;;2.00;;
80119;SDS011;69425;55.040;82.918;2023-05-23T02:41:23;2.65;;;2.00;;
80119;SDS011;69425;55.040;82.918;2023-05-23T02:46:25;3.92;;;2.25;;
80119;SDS011;69425;55.040;82.918;2023-05-23T02:51:26;4.35;;;2.42;;
80119;SDS011;69425;55.040;82.918;2023-05-23T02:56:28;4.00;;;2.17;;
80119;SDS011;69425;55.040;82.918;2023-05-23T03:01:30;3.38;;;2.10;;
80119;SDS011;69425;55.040;82.918;2023-05-23T03:06:31;4.32;;;1.95;;
80119;SDS011;69425;55.040;82.918;2023-05-23T03:11:33;2.00;;;1.50;;
80119;SDS011;69425;55.040;82.918;2023-05-23T03:16:35;4.43;;;1.98;;
80119;SDS011;69425;55.040;82.918;2023-05-23T03:21:37;1.98;;;1.70;;
80119;SDS011;69425;55.040;82.918;2023-05-23T03:26:38;4.22;;;1.58;;
80119;SDS011;69425;55.040;82.918;2023-05-23T03:31:41;3.45;;;1.80;;
80119;SDS011;69425;55.040;82.918;2023-05-23T03:36:42;2.35;;;1.55;;
80119;SDS011;69425;55.040;82.918;2023-05-23T03:41:43;2.75;;;1.67;;
80119;SDS011;69425;55.040;82.918;2023-05-23T03:46:46;2.60;;;1.30;;
80119;SDS011;69425;55.040;82.918;2023-05-23T03:51:47;1.92;;;1.25;;
80119;SDS011;69425;55.040;82.918;2023-05-23T03:56:48;2.00;;;1.55;;
80119;SDS011;69425;55.040;82.918;2023-05-23T04:01:51;3.72;;;1.80;;
80119;SDS011;69425;55.040;82.918;2023-05-23T04:06:52;1.92;;;1.42;;
80119;SDS011;69425;55.040;82.918;2023-05-23T04:11:53;3.03;;;1.27;;
80119;SDS011;69425;55.040;82.918;2023-05-23T04:16:56;2.67;;;1.20;;
80119;SDS011;69425;55.040;82.918;2023-05-23T04:21:57;1.95;;;1.05;;
80119;SDS011;69425;55.040;82.918;2023-05-23T04:26:59;3.85;;;1.20;;
80119;SDS011;69425;55.040;82.918;2023-05-23T04:32:01;1.88;;;1.23;;
80119;SDS011;69425;55.040;82.918;2023-05-23T04:37:03;1.63;;;1.20;;
80119;SDS011;69425;55.040;82.918;2023-05-23T04:42:04;4.22;;;1.20;;
80119;SDS011;69425;55.040;82.918;2023-05-23T04:47:07;3.55;;;1.25;;
80119;SDS011;69425;55.040;82.918;2023-05-23T04:52:08;3.10;;;1.10;;
80119;SDS011;69425;55.040;82.918;2023-05-23T04:57:10;3.83;;;1.30;;
80119;SDS011;69425;55.040;82.918;2023-05-23T05:02:13;1.80;;;1.50;;
80119;SDS011;69425;55.040;82.918;2023-05-23T05:07:14;2.70;;;1.52;;
80119;SDS011;69425;55.040;82.918;2023-05-23T05:12:15;3.55;;;1.50;;
80119;SDS011;69425;55.040;82.918;2023-05-23T05:17:18;2.15;;;1.40;;
80119;SDS011;69425;55.040;82.918;2023-05-23T05:22:19;2.47;;;1.40;;
80119;SDS011;69425;55.040;82.918;2023-05-23T05:27:20;1.60;;;1.30;;
80119;SDS011;69425;55.040;82.918;2023-05-23T05:32:23;1.80;;;1.17;;
80119;SDS011;69425;55.040;82.918;2023-05-23T05:37:24;5.35;;;1.50;;
80119;SDS011;69425;55.040;82.918;2023-05-23T05:42:25;1.88;;;1.38;;
80119;SDS011;69425;55.040;82.918;2023-05-23T05:47:28;4.38;;;1.63;;
80119;SDS011;69425;55.040;82.918;2023-05-23T05:52:29;2.13;;;1.38;;
80119;SDS011;69425;55.040;82.918;2023-05-23T05:57:30;1.90;;;1.30;;
80119;SDS011;69425;55.040;82.918;2023-05-23T06:02:33;2.25;;;1.48;;
80119;SDS011;69425;55.040;82.918;2023-05-23T06:07:34;3.95;;;1.80;;
80119;SDS011;69425;55.040;82.918;2023-05-23T06:12:35;3.10;;;1.48;;
80119;SDS011;69425;55.040;82.918;2023-05-23T06:17:38;2.58;;;1.60;;
80119;SDS011;69425;55.040;82.918;2023-05-23T06:22:39;2.88;;;1.45;;
80119;SDS011;69425;55.040;82.918;2023-05-23T06:27:40;1.75;;;1.58;;
80119;SDS011;69425;55.040;82.918;2023-05-23T06:32:43;2.90;;;1.92;;
80119;SDS011;69425;55.040;82.918;2023-05-23T06:37:44;4.53;;;1.52;;
80119;SDS011;69425;55.040;82.918;2023-05-23T06:42:46;2.22;;;1.13;;
80119;SDS011;69425;55.040;82.918;2023-05-23T06:47:48;1.65;;;1.40;;
80119;SDS011;69425;55.040;82.918;2023-05-23T06:52:50;4.13;;;1.60;;
80119;SDS011;69425;55.040;82.918;2023-05-23T06:57:51;2.30;;;1.60;;
80119;SDS011;69425;55.040;82.918;2023-05-23T07:02:54;4.03;;;1.50;;
80119;SDS011;69425;55.040;82.918;2023-05-23T07:07:55;1.95;;;1.50;;
80119;SDS011;69425;55.040;82.918;2023-05-23T07:12:56;2.38;;;1.40;;
80119;SDS011;69425;55.040;82.918;2023-05-23T07:17:59;3.35;;;1.40;;
80119;SDS011;69425;55.040;82.918;2023-05-23T07:23:00;2.75;;;1.23;;
80119;SDS011;69425;55.040;82.918;2023-05-23T07:28:01;3.25;;;2.00;;
80119;SDS011;69425;55.040;82.918;2023-05-23T07:33:04;2.67;;;1.58;;
80119;SDS011;69425;55.040;82.918;2023-05-23T07:38:05;2.13;;;1.70;;
80119;SDS011;69425;55.040;82.918;2023-05-23T07:43:06;1.98;;;1.40;;
80119;SDS011;69425;55.040;82.918;2023-05-23T07:48:09;4.10;;;2.15;;
80119;SDS011;69425;55.040;82.918;2023-05-23T07:53:10;2.78;;;1.50;;
80119;SDS011;69425;55.040;82.918;2023-05-23T07:58:11;3.35;;;1.50;;
80119;SDS011;69425;55.040;82.918;2023-05-23T08:03:14;1.90;;;1.38;;
80119;SDS011;69425;55.040;82.918;2023-05-23T08:08:15;2.88;;;1.65;;
80119;SDS011;69425;55.040;82.918;2023-05-23T08:13:16;3.40;;;1.50;;
80119;SDS011;69425;55.040;82.918;2023-05-23T08:18:19;2.78;;;1.35;;
80119;SDS011;69425;55.040;82.918;2023-05-23T08:23:20;3.10;;;1.52;;
80119;SDS011;69425;55.040;82.918;2023-05-23T08:28:21;2.42;;;1.77;;
80119;SDS011;69425;55.040;82.918;2023-05-23T08:33:24;2.92;;;1.60;;
80119;SDS011;69425;55.040;82.918;2023-05-23T08:38:25;3.15;;;1.52;;
80119;SDS011;69425;55.040;82.918;2023-05-23T08:43:26;1.90;;;1.60;;
80119;SDS011;69425;55.040;82.918;2023-05-23T08:48:29;1.45;;;1.35;;
80119;SDS011;69425;55.040;82.918;2023-05-23T08:53:31;1.80;;;1.35;;
80119;SDS011;69425;55.040;82.918;2023-05-23T08:58:33;3.53;;;1.52;;
80119;SDS011;69425;55.040;82.918;2023-05-23T09:03:36;3.53;;;1.20;;
80119;SDS011;69425;55.040;82.918;2023-05-23T09:08:38;4.10;;;2.65;;
80119;SDS011;69425;55.040;82.918;2023-05-23T09:13:39;4.07;;;2.67;;
80119;SDS011;69425;55.040;82.918;2023-05-23T09:18:49;5.03;;;2.50;;
80119;SDS011;69425;55.040;82.918;2023-05-23T09:23:50;3.83;;;2.42;;
80119;SDS011;69425;55.040;82.918;2023-05-23T09:28:52;5.20;;;1.77;;
80119;SDS011;69425;55.040;82.918;2023-05-23T09:33:59;2.42;;;1.55;;
80119;SDS011;69425;55.040;82.918;2023-05-23T09:39:01;5.63;;;2.60;;
80119;SDS011;69425;55.040;82.918;2023-05-23T09:44:07;4.68;;;3.08;;
80119;SDS011;69425;55.040;82.918;2023-05-23T09:49:19;9.23;;;5.40;;
80119;SDS011;69425;55.040;82.918;2023-05-23T09:54:20;13.30;;;7.72;;
80119;SDS011;69425;55.040;82.918;2023-05-23T09:59:21;10.18;;;7.65;;
80119;SDS011;69425;55.040;82.918;2023-05-23T10:04:24;6.80;;;5.03;;
80119;SDS011;69425;55.040;82.918;2023-05-23T10:09:27;5.30;;;4.30;;
80119;SDS011;69425;55.040;82.918;2023-05-23T10:14:31;8.25;;;5.22;;
80119;SDS011;69425;55.040;82.918;2023-05-23T10:19:39;11.98;;;8.10;;
80119;SDS011;69425;55.040;82.918;2023-05-23T10:24:44;18.30;;;10.15;;
80119;SDS011;69425;55.040;82.918;2023-05-23T10:29:45;9.93;;;7.10;;
80119;SDS011;69425;55.040;82.918;2023-05-23T10:34:51;11.30;;;6.38;;
80119;SDS011;69425;55.040;82.918;2023-05-23T10:39:56;7.38;;;5.30;;
80119;SDS011;69425;55.040;82.918;2023-05-23T10:45:13;8.82;;;5.85;;
80119;SDS011;69425;55.040;82.918;2023-05-23T10:50:28;9.80;;;6.60;;
80119;SDS011;69425;55.040;82.918;2023-05-23T10:55:30;8.38;;;5.90;;
80119;SDS011;69425;55.040;82.918;2023-05-23T11:00:32;6.78;;;4.65;;
80119;SDS011;69425;55.040;82.918;2023-05-23T11:05:35;10.40;;;5.00;;
80119;SDS011;69425;55.040;82.918;2023-05-23T11:15:56;9.50;;;6.00;;
80119;SDS011;69425;55.040;82.918;2023-05-23T11:20:58;10.48;;;5.43;;
80119;SDS011;69425;55.040;82.918;2023-05-23T11:26:00;7.70;;;5.15;;
80119;SDS011;69425;55.040;82.918;2023-05-23T11:31:02;8.27;;;5.65;;
80119;SDS011;69425;55.040;82.918;2023-05-23T11:36:05;17.13;;;9.45;;
80119;SDS011;69425;55.040;82.918;2023-05-23T11:41:07;12.90;;;9.18;;
80119;SDS011;69425;55.040;82.918;2023-05-23T11:46:08;13.25;;;9.05;;
80119;SDS011;69425;55.040;82.918;2023-05-23T11:51:11;11.50;;;7.63;;
80119;SDS011;69425;55.040;82.918;2023-05-23T11:56:13;16.10;;;9.15;;
80119;SDS011;69425;55.040;82.918;2023-05-23T12:01:14;14.68;;;11.85;;
80119;SDS011;69425;55.040;82.918;2023-05-23T12:06:18;15.95;;;12.07;;
80119;SDS011;69425;55.040;82.918;2023-05-23T12:11:21;17.67;;;12.32;;
80119;SDS011;69425;55.040;82.918;2023-05-23T12:16:22;18.15;;;12.50;;
80119;SDS011;69425;55.040;82.918;2023-05-23T12:21:26;14.35;;;9.85;;
80119;SDS011;69425;55.040;82.918;2023-05-23T12:26:45;11.25;;;8.07;;
80119;SDS011;69425;55.040;82.918;2023-05-23T12:31:47;11.30;;;8.73;;
80119;SDS011;69425;55.040;82.918;2023-05-23T12:36:53;12.27;;;8.35;;
80119;SDS011;69425;55.040;82.918;2023-05-23T12:41:55;11.20;;;7.97;;
80119;SDS011;69425;55.040;82.918;2023-05-23T12:47:06;13.73;;;8.13;;
80119;SDS011;69425;55.040;82.918;2023-05-23T12:52:09;9.15;;;6.85;;
80119;SDS011;69425;55.040;82.918;2023-05-23T12:57:10;11.77;;;7.75;;
80119;SDS011;69425;55.040;82.918;2023-05-23T13:02:11;13.70;;;7.57;;
80119;SDS011;69425;55.040;82.918;2023-05-23T13:07:14;5.35;;;3.22;;
80119;SDS011;69425;55.040;82.918;2023-05-23T13:12:15;3.78;;;2.42;;
80119;SDS011;69425;55.040;82.918;2023-05-23T13:17:16;3.83;;;2.30;;
80119;SDS011;69425;55.040;82.918;2023-05-23T13:22:19;6.78;;;3.55;;
80119;SDS011;69425;55.040;82.918;2023-05-23T13:27:20;10.55;;;5.20;;
80119;SDS011;69425;55.040;82.918;2023-05-23T13:32:21;8.23;;;5.55;;
80119;SDS011;69425;55.040;82.918;2023-05-23T13:37:24;8.27;;;4.32;;
80119;SDS011;69425;55.040;82.918;2023-05-23T13:42:25;7.53;;;3.20;;
80119;SDS011;69425;55.040;82.918;2023-05-23T13:47:26;6.72;;;2.30;;
80119;SDS011;69425;55.040;82.918;2023-05-23T13:52:29;5.43;;;1.80;;
80119;SDS011;69425;55.040;82.918;2023-05-23T13:57:30;3.08;;;1.50;;
80119;SDS011;69425;55.040;82.918;2023-05-23T14:02:32;3.42;;;1.70;;
80119;SDS011;69425;55.040;82.918;2023-05-23T14:07:34;3.55;;;1.33;;
80119;SDS011;69425;55.040;82.918;2023-05-23T14:12:36;2.80;;;1.10;;
80119;SDS011;69425;55.040;82.918;2023-05-23T14:17:37;2.08;;;1.38;;
80119;SDS011;69425;55.040;82.918;2023-05-23T14:22:40;4.97;;;1.60;;
80119;SDS011;69425;55.040;82.918;2023-05-23T14:27:41;2.30;;;1.30;;
80119;SDS011;69425;55.040;82.918;2023-05-23T14:32:42;3.28;;;1.25;;
80119;SDS011;69425;55.040;82.918;2023-05-23T14:37:45;2.13;;;1.25;;
80119;SDS011;69425;55.040;82.918;2023-05-23T14:42:46;3.40;;;1.48;;
80119;SDS011;69425;55.040;82.918;2023-05-23T14:47:47;2.67;;;1.30;;
80119;SDS011;69425;55.040;82.918;2023-05-23T14:52:50;2.08;;;1.42;;
80119;SDS011;69425;55.040;82.918;2023-05-23T14:57:53;3.75;;;1.60;;
80119;SDS011;69425;55.040;82.918;2023-05-23T15:02:54;2.88;;;1.50;;
80119;SDS011;69425;55.040;82.918;2023-05-23T15:07:56;2.80;;;1.77;;
80119;SDS011;69425;55.040;82.918;2023-05-23T15:12:58;6.10;;;2.20;;
80119;SDS011;69425;55.040;82.918;2023-05-23T15:17:59;6.05;;;1.85;;
80119;SDS011;69425;55.040;82.918;2023-05-23T15:23:02;3.00;;;1.80;;
80119;SDS011;69425;55.040;82.918;2023-05-23T15:28:03;3.80;;;1.83;;
80119;SDS011;69425;55.040;82.918;2023-05-23T15:33:04;4.88;;;1.85;;
80119;SDS011;69425;55.040;82.918;2023-05-23T15:38:07;2.13;;;1.52;;
80119;SDS011;69425;55.040;82.918;2023-05-23T15:43:08;4.55;;;1.83;;
80119;SDS011;69425;55.040;82.918;2023-05-23T15:48:09;4.30;;;1.98;;
80119;SDS011;69425;55.040;82.918;2023-05-23T15:53:12;8.13;;;1.90;;
80119;SDS011;69425;55.040;82.918;2023-05-23T15:58:13;5.60;;;1.52;;
80119;SDS011;69425;55.040;82.918;2023-05-23T16:03:14;4.63;;;2.00;;
80119;SDS011;69425;55.040;82.918;2023-05-23T16:08:17;5.53;;;2.05;;
80119;SDS011;69425;55.040;82.918;2023-05-23T16:13:18;8.48;;;2.80;;
80119;SDS011;69425;55.040;82.918;2023-05-23T16:18:20;4.65;;;2.30;;
80119;SDS011;69425;55.040;82.918;2023-05-23T16:23:22;5.85;;;2.17;;
80119;SDS011;69425;55.040;82.918;2023-05-23T16:28:25;5.57;;;2.15;;
80119;SDS011;69425;55.040;82.918;2023-05-23T16:33:27;7.28;;;2.55;;
80119;SDS011;69425;55.040;82.918;2023-05-23T16:38:29;5.88;;;2.58;;
80119;SDS011;69425;55.040;82.918;2023-05-23T16:43:31;4.72;;;2.25;;
80119;SDS011;69425;55.040;82.918;2023-05-23T16:48:33;6.97;;;2.38;;
80119;SDS011;69425;55.040;82.918;2023-05-23T16:53:35;7.22;;;2.35;;
80119;SDS011;69425;55.040;82.918;2023-05-23T16:58:37;5.07;;;1.92;;
80119;SDS011;69425;55.040;82.918;2023-05-23T17:03:38;6.72;;;2.45;;
80119;SDS011;69425;55.040;82.918;2023-05-23T17:08:40;5.35;;;1.98;;
80119;SDS011;69425;55.040;82.918;2023-05-23T17:13:42;5.28;;;2.13;;
80119;SDS011;69425;55.040;82.918;2023-05-23T17:18:43;6.57;;;2.50;;
80119;SDS011;69425;55.040;82.918;2023-05-23T17:23:46;5.03;;;2.28;;
80119;SDS011;69425;55.040;82.918;2023-05-23T17:28:47;6.05;;;2.38;;
80119;SDS011;69425;55.040;82.918;2023-05-23T17:33:48;3.38;;;2.05;;
80119;SDS011;69425;55.040;82.918;2023-05-23T17:38:51;4.28;;;2.20;;
80119;SDS011;69425;55.040;82.918;2023-05-23T17:43:52;4.97;;;1.95;;
80119;SDS011;69425;55.040;82.918;2023-05-23T17:48:53;6.53;;;2.78;;
80119;SDS011;69425;55.040;82.918;2023-05-23T17:53:56;6.03;;;2.80;;
80119;SDS011;69425;55.040;82.918;2023-05-23T17:58:57;6.30;;;2.13;;
80119;SDS011;69425;55.040;82.918;2023-05-23T18:04:00;4.55;;;1.80;;
80119;SDS011;69425;55.040;82.918;2023-05-23T18:09:03;3.90;;;2.22;;
80119;SDS011;69425;55.040;82.918;2023-05-23T18:14:04;5.75;;;1.58;;
80119;SDS011;69425;55.040;82.918;2023-05-23T18:19:05;2.88;;;1.90;;
80119;SDS011;69425;55.040;82.918;2023-05-23T18:24:08;3.22;;;1.60;;
80119;SDS011;69425;55.040;82.918;2023-05-23T18:29:09;4.22;;;1.75;;
80119;SDS011;69425;55.040;82.918;2023-05-23T18:34:10;2.35;;;1.67;;
80119;SDS011;69425;55.040;82.918;2023-05-23T18:39:13;2.30;;;1.27;;
80119;SDS011;69425;55.040;82.918;2023-05-23T18:44:14;2.95;;;1.58;;
80119;SDS011;69425;55.040;82.918;2023-05-23T18:49:16;2.92;;;1.60;;
80119;SDS011;69425;55.040;82.918;2023-05-23T18:54:18;3.90;;;1.85;;
80119;SDS011;69425;55.040;82.918;2023-05-23T18:59:19;4.30;;;1.75;;
80119;SDS011;69425;55.040;82.918;2023-05-23T19:04:21;4.63;;;1.50;;
80119;SDS011;69425;55.040;82.918;2023-05-23T19:09:23;4.18;;;1.92;;
80119;SDS011;69425;55.040;82.918;2023-05-23T19:14:24;3.70;;;1.95;;
80119;SDS011;69425;55.040;82.918;2023-05-23T19:19:26;3.28;;;1.60;;
80119;SDS011;69425;55.040;82.918;2023-05-23T19:24:34;3.42;;;1.75;;
80119;SDS011;69425;55.040;82.918;2023-05-23T19:29:35;4.32;;;2.08;;
80119;SDS011;69425;55.040;82.918;2023-05-23T19:34:36;3.83;;;1.90;;
80119;SDS011;69425;55.040;82.918;2023-05-23T19:39:39;3.95;;;1.70;;
80119;SDS011;69425;55.040;82.918;2023-05-23T19:44:40;2.22;;;1.45;;
80119;SDS011;69425;55.040;82.918;2023-05-23T19:49:41;4.47;;;1.52;;
80119;SDS011;69425;55.040;82.918;2023-05-23T19:54:44;4.88;;;1.58;;
80119;SDS011;69425;55.040;82.918;2023-05-23T19:59:45;4.93;;;1.95;;
80119;SDS011;69425;55.040;82.918;2023-05-23T20:04:46;4.35;;;1.95;;
80119;SDS011;69425;55.040;82.918;2023-05-23T20:09:49;2.95;;;2.00;;
80119;SDS011;69425;55.040;82.918;2023-05-23T20:14:50;4.68;;;1.75;;
80119;SDS011;69425;55.040;82.918;2023-05-23T20:19:51;3.40;;;1.60;;
80119;SDS011;69425;55.040;82.918;2023-05-23T20:24:54;2.88;;;1.45;;
80119;SDS011;69425;55.040;82.918;2023-05-23T20:29:55;3.05;;;1.38;;
80119;SDS011;69425;55.040;82.918;2023-05-23T20:34:56;3.10;;;1.42;;
80119;SDS011;69425;55.040;82.918;2023-05-23T20:39:59;3.30;;;1.30;;
80119;SDS011;69425;55.040;82.918;2023-05-23T20:45:02;4.47;;;1.48;;
80119;SDS011;69425;55.040;82.918;2023-05-23T20:50:05;3.00;;;1.58;;
80119;SDS011;69425;55.040;82.918;2023-05-23T20:55:09;5.22;;;1.77;;
80119;SDS011;69425;55.040;82.918;2023-05-23T21:00:10;4.38;;;1.67;;
80119;SDS011;69425;55.040;82.918;2023-05-23T21:05:12;4.35;;;1.55;;
80119;SDS011;69425;55.040;82.918;2023-05-23T21:10:15;2.88;;;1.52;;
80119;SDS011;69425;55.040;82.918;2023-05-23T21:15:16;2.38;;;1.23;;
80119;SDS011;69425;55.040;82.918;2023-05-23T21:20:18;1.63;;;1.00;;
80119;SDS011;69425;55.040;82.918;2023-05-23T21:25:20;2.53;;;1.23;;
80119;SDS011;69425;55.040;82.918;2023-05-23T21:30:21;2.97;;;1.52;;
80119;SDS011;69425;55.040;82.918;2023-05-23T21:35:23;3.30;;;1.80;;
80119;SDS011;69425;55.040;82.918;2023-05-23T21:40:25;4.88;;;1.95;;
80119;SDS011;69425;55.040;82.918;2023-05-23T21:45:27;3.88;;;1.88;;
80119;SDS011;69425;55.040;82.918;2023-05-23T21:50:28;2.10;;;1.38;;
80119;SDS011;69425;55.040;82.918;2023-05-23T21:55:30;2.20;;;1.10;;
80119;SDS011;69425;55.040;82.918;2023-05-23T22:00:32;2.97;;;1.00;;
80119;SDS011;69425;55.040;82.918;2023-05-23T22:05:33;2.47;;;1.17;;
80119;SDS011;69425;55.040;82.918;2023-05-23T22:10:35;1.85;;;1.23;;
80119;SDS011;69425;55.040;82.918;2023-05-23T22:15:37;1.70;;;0.82;;
80119;SDS011;69425;55.040;82.918;2023-05-23T22:20:38;3.67;;;1.27;;
80119;SDS011;69425;55.040;82.918;2023-05-23T22:25:40;3.20;;;1.25;;
80119;SDS011;69425;55.040;82.918;2023-05-23T22:30:42;2.75;;;1.38;;
80119;SDS011;69425;55.040;82.918;2023-05-23T22:35:43;3.78;;;1.42;;
80119;SDS011;69425;55.040;82.918;2023-05-23T22:40:45;4.63;;;1.63;;
80119;SDS011;69425;55.040;82.918;2023-05-23T22:45:47;7.35;;;2.00;;
80119;SDS011;69425;55.040;82.918;2023-05-23T22:50:48;3.15;;;1.90;;
80119;SDS011;69425;55.040;82.918;2023-05-23T22:55:51;4.90;;;2.03;;
80119;SDS011;69425;55.040;82.918;2023-05-23T23:00:52;7.85;;;2.42;;
80119;SDS011;69425;55.040;82.918;2023-05-23T23:05:53;7.63;;;2.42;;
80119;SDS011;69425;55.040;82.918;2023-05-23T23:10:56;7.20;;;2.63;;
80119;SDS011;69425;55.040;82.918;2023-05-23T23:15:57;6.65;;;1.92;;
80119;SDS011;69425;55.040;82.918;2023-05-23T23:20:58;4.20;;;2.28;;
80119;SDS011;69425;55.040;82.918;2023-05-23T23:26:01;3.30;;;1.70;;
80119;SDS011;69425;55.040;82.918;2023-05-23T23:31:02;5.55;;;1.67;;
80119;SDS011;69425;55.040;82.918;2023-05-23T23:36:03;6.82;;;2.08;;
80119;SDS011;69425;55.040;82.918;2023-05-23T23:41:07;5.82;;;1.85;;
80119;SDS011;69425;55.040;82.918;2023-05-23T23:46:08;4.07;;;1.88;;
80119;SDS011;69425;55.040;82.918;2023-05-23T23:51:09;8.80;;;2.42;;
80119;SDS011;69425;55.040;82.918;2023-05-23T23:56:12;3.47;;;1.90;;
